Lutz, FL

8:53 AM EDT on May 23, 2015 (GMT -0400)
Old Reliable Groves, Lutz, FL | | Change Station
CLOSE
Current Station
Personal Weather Station
Location: Lutz, FL
Elevation: 69 ft
Nearby Weather Stations

Elev 69 ft 28.12 °N, 82.47 °W | Updated 26 seconds ago

Clear
Clear
77.0 °F
Feels Like 78 °F
N
0.9
Wind Variable Wind from WNW
Gusts 3.0 mph

Today
High -- | Low -- °F
--% Chance of Precip.
Yesterday
High -- | Low -- °F
Precip. -- in
6:36 AM 8:17 PM
Waxing Crescent, 29% visible
Pressure 30.20 in
Visibility 10.0 miles
Clouds Clear
Heat Index 78 °F
Dew Point 73 °F
Humidity 87%
Rainfall 0.00 in
Snow Depth Not available.
UV 1 out of 12
Pollen 5.60 out of 12
Air Quality Not available.
Flu Activity Sporadic
METAR KTPA 231153Z 06008KT 10SM CLR 24/20 A3020 RMK AO2 SLP226 T02440200 10250 20233 52018

More Conditions Fewer Conditions

Pressure 30.20 in
Visibility 10.0 miles
Clouds Clear
Heat Index 78 °F
Dew Point 73 °F
Humidity 87%
Rainfall 0.00 in
Snow Depth Not available.
UV 1 out of 12
Pollen 5.60 out of 12
Air Quality Not available.
Flu Activity Sporadic
METAR KTPA 231153Z 06008KT 10SM CLR 24/20 A3020 RMK AO2 SLP226 T02440200 10250 20233 52018

More Conditions Fewer Conditions

10-Day Weather Forecast

Almanac

Astronomy

May. 23, 2015 Rise Set
Actual Time
Civil Twilight
Nautical Twilight
Astronomical Twilight
Moon
Length of Visible Light
Length of Day
Tomorrow will be .
, % of the Moon is Illuminated

Today's Extremes

State Highs State Lows

Community

WunderPhotos

Upload Photos

1,823,442 photos uploaded!

WunderBlogs® & News

Nearby

Air Quality

  Air Quality AQ Index Pollutant
Not available.

Snow Depth

Station Depth Elevation

Earthquake Activity

City Distance Mag. Time & Date
Minimum magnitude displayed is 2.5.

Coastal Water Temperatures

Place Temperature

Stations

Nearby Weather Stations

Station Location Temp. Windchill Dew Point Humidity Wind Precip. Elev Updated Type